sensor_id;sensor_type;location;lat;lon;timestamp;temperature;humidity
59469;DHT22;45277;52.768;18.262;2022-08-04T00:00:21;16.80;99.90
59469;DHT22;45277;52.768;18.262;2022-08-04T00:02:23;16.80;99.90
59469;DHT22;45277;52.768;18.262;2022-08-04T00:06:24;16.80;99.90
59469;DHT22;45277;52.768;18.262;2022-08-04T00:09:48;16.80;99.90
59469;DHT22;45277;52.768;18.262;2022-08-04T00:11:25;16.80;99.90
59469;DHT22;45277;52.768;18.262;2022-08-04T00:12:59;16.80;99.90
59469;DHT22;45277;52.768;18.262;2022-08-04T00:14:36;16.80;99.90
59469;DHT22;45277;52.768;18.262;2022-08-04T00:16:09;16.70;99.90
59469;DHT22;45277;52.768;18.262;2022-08-04T00:17:52;16.70;99.90
59469;DHT22;45277;52.768;18.262;2022-08-04T00:19:37;16.70;99.90
59469;DHT22;45277;52.768;18.262;2022-08-04T00:21:15;16.60;99.90
59469;DHT22;45277;52.768;18.262;2022-08-04T00:22:49;16.60;99.90
59469;DHT22;45277;52.768;18.262;2022-08-04T00:24:23;16.60;99.90
59469;DHT22;45277;52.768;18.262;2022-08-04T00:25:55;16.50;99.90
59469;DHT22;45277;52.768;18.262;2022-08-04T00:27:30;16.50;99.90
59469;DHT22;45277;52.768;18.262;2022-08-04T00:29:02;16.50;99.90
59469;DHT22;45277;52.768;18.262;2022-08-04T00:30:41;16.50;99.90
59469;DHT22;45277;52.768;18.262;2022-08-04T00:32:13;16.40;99.90
59469;DHT22;45277;52.768;18.262;2022-08-04T00:33:46;16.40;99.90
59469;DHT22;45277;52.768;18.262;2022-08-04T00:35:20;16.40;99.90
59469;DHT22;45277;52.768;18.262;2022-08-04T00:36:55;16.30;99.90
59469;DHT22;45277;52.768;18.262;2022-08-04T00:38:29;16.30;99.90
59469;DHT22;45277;52.768;18.262;2022-08-04T00:40:55;16.30;99.90
59469;DHT22;45277;52.768;18.262;2022-08-04T00:42:21;16.30;99.90
59469;DHT22;45277;52.768;18.262;2022-08-04T00:51:36;16.10;99.90
59469;DHT22;45277;52.768;18.262;2022-08-04T00:53:32;16.10;99.90
59469;DHT22;45277;52.768;18.262;2022-08-04T00:57:08;16.10;99.90
59469;DHT22;45277;52.768;18.262;2022-08-04T00:59:05;16.10;99.90
59469;DHT22;45277;52.768;18.262;2022-08-04T01:01:01;16.10;99.90
59469;DHT22;45277;52.768;18.262;2022-08-04T01:07:11;15.90;99.90
59469;DHT22;45277;52.768;18.262;2022-08-04T01:09:03;15.90;99.90
59469;DHT22;45277;52.768;18.262;2022-08-04T01:10:53;15.90;99.90
59469;DHT22;45277;52.768;18.262;2022-08-04T01:14:50;15.80;99.90
59469;DHT22;45277;52.768;18.262;2022-08-04T01:16:29;15.80;99.90
59469;DHT22;45277;52.768;18.262;2022-08-04T01:18:04;15.80;99.90
59469;DHT22;45277;52.768;18.262;2022-08-04T01:23:52;15.70;99.90
59469;DHT22;45277;52.768;18.262;2022-08-04T01:30:44;15.70;99.90
59469;DHT22;45277;52.768;18.262;2022-08-04T01:34:05;15.70;99.90
59469;DHT22;45277;52.768;18.262;2022-08-04T01:35:54;15.70;99.90
59469;DHT22;45277;52.768;18.262;2022-08-04T01:39:16;15.60;99.90
59469;DHT22;45277;52.768;18.262;2022-08-04T01:41:13;15.60;99.90
59469;DHT22;45277;52.768;18.262;2022-08-04T01:42:44;15.60;99.90
59469;DHT22;45277;52.768;18.262;2022-08-04T01:44:23;15.50;99.90
59469;DHT22;45277;52.768;18.262;2022-08-04T01:46:02;15.50;99.90
59469;DHT22;45277;52.768;18.262;2022-08-04T01:47:39;15.50;99.90
59469;DHT22;45277;52.768;18.262;2022-08-04T01:49:11;15.50;99.90
59469;DHT22;45277;52.768;18.262;2022-08-04T01:50:43;15.50;99.90
59469;DHT22;45277;52.768;18.262;2022-08-04T01:52:17;15.50;99.90
59469;DHT22;45277;52.768;18.262;2022-08-04T01:53:50;15.40;99.90
59469;DHT22;45277;52.768;18.262;2022-08-04T01:55:27;15.50;99.90
59469;DHT22;45277;52.768;18.262;2022-08-04T01:57:01;15.50;99.90
59469;DHT22;45277;52.768;18.262;2022-08-04T01:58:39;15.50;99.90
59469;DHT22;45277;52.768;18.262;2022-08-04T02:00:13;15.50;99.90
59469;DHT22;45277;52.768;18.262;2022-08-04T02:01:47;15.50;99.90
59469;DHT22;45277;52.768;18.262;2022-08-04T02:03:20;15.50;99.90
59469;DHT22;45277;52.768;18.262;2022-08-04T02:05:01;15.50;99.90
59469;DHT22;45277;52.768;18.262;2022-08-04T02:08:26;15.50;99.90
59469;DHT22;45277;52.768;18.262;2022-08-04T02:10:17;15.40;99.90
59469;DHT22;45277;52.768;18.262;2022-08-04T02:14:15;15.40;99.90
59469;DHT22;45277;52.768;18.262;2022-08-04T02:16:20;15.40;99.90
59469;DHT22;45277;52.768;18.262;2022-08-04T02:18:22;15.30;99.90
59469;DHT22;45277;52.768;18.262;2022-08-04T02:20:14;15.30;99.90
59469;DHT22;45277;52.768;18.262;2022-08-04T02:22:07;15.30;99.90
59469;DHT22;45277;52.768;18.262;2022-08-04T02:23:53;15.30;99.90
59469;DHT22;45277;52.768;18.262;2022-08-04T02:25:28;15.20;99.90
59469;DHT22;45277;52.768;18.262;2022-08-04T02:27:04;15.30;99.90
59469;DHT22;45277;52.768;18.262;2022-08-04T02:28:57;15.20;99.90
59469;DHT22;45277;52.768;18.262;2022-08-04T02:32:26;15.30;99.90
59469;DHT22;45277;52.768;18.262;2022-08-04T02:34:08;15.30;99.90
59469;DHT22;45277;52.768;18.262;2022-08-04T02:35:44;15.30;99.90
59469;DHT22;45277;52.768;18.262;2022-08-04T02:37:20;15.40;99.90
59469;DHT22;45277;52.768;18.262;2022-08-04T02:39:02;15.40;99.90
59469;DHT22;45277;52.768;18.262;2022-08-04T02:40:35;15.30;99.90
59469;DHT22;45277;52.768;18.262;2022-08-04T02:42:11;15.30;99.90
59469;DHT22;45277;52.768;18.262;2022-08-04T02:43:47;15.30;99.90
59469;DHT22;45277;52.768;18.262;2022-08-04T02:45:22;15.30;99.90
59469;DHT22;45277;52.768;18.262;2022-08-04T02:46:56;15.20;99.90
59469;DHT22;45277;52.768;18.262;2022-08-04T02:48:31;15.20;99.90
59469;DHT22;45277;52.768;18.262;2022-08-04T02:50:08;15.20;99.90
59469;DHT22;45277;52.768;18.262;2022-08-04T02:51:44;15.20;99.90
59469;DHT22;45277;52.768;18.262;2022-08-04T02:53:17;15.20;99.90
59469;DHT22;45277;52.768;18.262;2022-08-04T02:54:54;15.20;99.90
59469;DHT22;45277;52.768;18.262;2022-08-04T02:56:30;15.20;99.90
59469;DHT22;45277;52.768;18.262;2022-08-04T02:58:02;15.20;99.90
59469;DHT22;45277;52.768;18.262;2022-08-04T03:00:02;15.10;99.90
59469;DHT22;45277;52.768;18.262;2022-08-04T03:01:36;15.10;99.90
59469;DHT22;45277;52.768;18.262;2022-08-04T03:03:22;15.10;99.90
59469;DHT22;45277;52.768;18.262;2022-08-04T03:05:01;15.20;99.90
59469;DHT22;45277;52.768;18.262;2022-08-04T03:10:55;15.10;99.90
59469;DHT22;45277;52.768;18.262;2022-08-04T03:30:05;15.10;99.90
59469;DHT22;45277;52.768;18.262;2022-08-04T03:31:54;15.10;99.90
59469;DHT22;45277;52.768;18.262;2022-08-04T03:35:51;15.00;99.90
59469;DHT22;45277;52.768;18.262;2022-08-04T03:42:05;15.10;99.90
59469;DHT22;45277;52.768;18.262;2022-08-04T03:44:02;15.20;99.90
59469;DHT22;45277;52.768;18.262;2022-08-04T03:47:50;15.20;99.90
59469;DHT22;45277;52.768;18.262;2022-08-04T03:52:16;15.40;99.90
59469;DHT22;45277;52.768;18.262;2022-08-04T03:54:02;15.50;99.90
59469;DHT22;45277;52.768;18.262;2022-08-04T03:58:06;15.80;99.90
59469;DHT22;45277;52.768;18.262;2022-08-04T03:59:56;15.90;99.90
59469;DHT22;45277;52.768;18.262;2022-08-04T04:05:34;16.30;99.90
59469;DHT22;45277;52.768;18.262;2022-08-04T04:10:00;16.50;99.90
59469;DHT22;45277;52.768;18.262;2022-08-04T04:14:46;16.70;99.90
59469;DHT22;45277;52.768;18.262;2022-08-04T04:16:01;16.80;99.90
59469;DHT22;45277;52.768;18.262;2022-08-04T04:20:09;17.00;99.90
59469;DHT22;45277;52.768;18.262;2022-08-04T04:29:28;17.50;99.90
59469;DHT22;45277;52.768;18.262;2022-08-04T04:33:11;17.70;99.90
59469;DHT22;45277;52.768;18.262;2022-08-04T04:35:20;17.80;99.90
59469;DHT22;45277;52.768;18.262;2022-08-04T04:38:43;18.00;99.90
59469;DHT22;45277;52.768;18.262;2022-08-04T04:46:22;18.40;99.90
59469;DHT22;45277;52.768;18.262;2022-08-04T04:48:25;18.50;99.90
59469;DHT22;45277;52.768;18.262;2022-08-04T04:52:48;18.80;99.90
59469;DHT22;45277;52.768;18.262;2022-08-04T04:53:55;18.90;99.90
59469;DHT22;45277;52.768;18.262;2022-08-04T04:55:38;19.00;99.90
59469;DHT22;45277;52.768;18.262;2022-08-04T04:57:17;19.10;99.90
59469;DHT22;45277;52.768;18.262;2022-08-04T04:58:52;19.20;99.90
59469;DHT22;45277;52.768;18.262;2022-08-04T05:00:48;19.30;99.90
59469;DHT22;45277;52.768;18.262;2022-08-04T05:15:13;20.00;99.90
59469;DHT22;45277;52.768;18.262;2022-08-04T05:17:11;20.10;99.90
59469;DHT22;45277;52.768;18.262;2022-08-04T05:18:53;20.20;99.90
59469;DHT22;45277;52.768;18.262;2022-08-04T05:20:42;20.30;99.90
59469;DHT22;45277;52.768;18.262;2022-08-04T05:24:07;20.40;99.90
59469;DHT22;45277;52.768;18.262;2022-08-04T05:25:51;20.50;99.90
59469;DHT22;45277;52.768;18.262;2022-08-04T05:27:39;20.60;99.90
59469;DHT22;45277;52.768;18.262;2022-08-04T05:29:33;20.70;99.90
59469;DHT22;45277;52.768;18.262;2022-08-04T05:31:15;20.80;99.90
59469;DHT22;45277;52.768;18.262;2022-08-04T05:32:55;21.00;99.90
59469;DHT22;45277;52.768;18.262;2022-08-04T05:34:41;21.00;99.90
59469;DHT22;45277;52.768;18.262;2022-08-04T05:36:20;21.10;99.90
59469;DHT22;45277;52.768;18.262;2022-08-04T05:37:53;21.20;99.90
59469;DHT22;45277;52.768;18.262;2022-08-04T05:39:30;21.30;99.90
59469;DHT22;45277;52.768;18.262;2022-08-04T05:41:04;21.40;99.90
59469;DHT22;45277;52.768;18.262;2022-08-04T05:42:38;21.60;99.90
59469;DHT22;45277;52.768;18.262;2022-08-04T05:44:11;21.70;99.90
59469;DHT22;45277;52.768;18.262;2022-08-04T05:45:45;21.70;99.90
59469;DHT22;45277;52.768;18.262;2022-08-04T05:47:19;21.80;99.90
59469;DHT22;45277;52.768;18.262;2022-08-04T05:48:52;21.90;99.90
59469;DHT22;45277;52.768;18.262;2022-08-04T05:50:25;22.00;99.90
59469;DHT22;45277;52.768;18.262;2022-08-04T05:52:02;22.10;99.90
59469;DHT22;45277;52.768;18.262;2022-08-04T05:53:34;22.20;99.90
59469;DHT22;45277;52.768;18.262;2022-08-04T05:55:08;22.30;99.90
59469;DHT22;45277;52.768;18.262;2022-08-04T05:56:42;22.40;99.90
59469;DHT22;45277;52.768;18.262;2022-08-04T05:58:16;22.50;99.90
59469;DHT22;45277;52.768;18.262;2022-08-04T05:59:50;22.60;99.90
59469;DHT22;45277;52.768;18.262;2022-08-04T06:01:23;22.70;99.90
59469;DHT22;45277;52.768;18.262;2022-08-04T06:02:56;22.70;99.90
59469;DHT22;45277;52.768;18.262;2022-08-04T06:04:38;22.80;99.90
59469;DHT22;45277;52.768;18.262;2022-08-04T06:06:13;22.90;99.90
59469;DHT22;45277;52.768;18.262;2022-08-04T06:07:47;23.00;99.90
59469;DHT22;45277;52.768;18.262;2022-08-04T06:09:20;23.10;99.90
59469;DHT22;45277;52.768;18.262;2022-08-04T06:10:55;23.20;99.90
59469;DHT22;45277;52.768;18.262;2022-08-04T06:12:45;23.20;99.90
59469;DHT22;45277;52.768;18.262;2022-08-04T06:14:19;23.40;99.90
59469;DHT22;45277;52.768;18.262;2022-08-04T06:16:04;23.50;99.90
59469;DHT22;45277;52.768;18.262;2022-08-04T06:17:39;23.60;99.90
59469;DHT22;45277;52.768;18.262;2022-08-04T06:19:13;23.70;99.90
59469;DHT22;45277;52.768;18.262;2022-08-04T06:20:48;23.80;99.90
59469;DHT22;45277;52.768;18.262;2022-08-04T06:22:24;23.90;99.90
59469;DHT22;45277;52.768;18.262;2022-08-04T06:23:59;23.90;99.90
59469;DHT22;45277;52.768;18.262;2022-08-04T06:25:41;23.90;99.90
59469;DHT22;45277;52.768;18.262;2022-08-04T06:27:15;23.80;99.90
59469;DHT22;45277;52.768;18.262;2022-08-04T06:28:51;23.90;99.90
59469;DHT22;45277;52.768;18.262;2022-08-04T06:30:24;23.90;99.90
59469;DHT22;45277;52.768;18.262;2022-08-04T06:31:59;24.00;99.90
59469;DHT22;45277;52.768;18.262;2022-08-04T06:33:33;24.00;99.90
59469;DHT22;45277;52.768;18.262;2022-08-04T06:35:09;24.00;99.90
59469;DHT22;45277;52.768;18.262;2022-08-04T06:36:41;24.00;99.80
59469;DHT22;45277;52.768;18.262;2022-08-04T06:38:14;24.10;99.90
59469;DHT22;45277;52.768;18.262;2022-08-04T06:39:46;24.20;99.90
59469;DHT22;45277;52.768;18.262;2022-08-04T06:41:18;24.20;99.50
59469;DHT22;45277;52.768;18.262;2022-08-04T06:42:51;24.20;99.10
59469;DHT22;45277;52.768;18.262;2022-08-04T06:44:23;24.30;98.30
59469;DHT22;45277;52.768;18.262;2022-08-04T06:45:58;24.40;98.10
59469;DHT22;45277;52.768;18.262;2022-08-04T06:47:36;24.50;99.90
59469;DHT22;45277;52.768;18.262;2022-08-04T06:49:07;24.60;99.70
59469;DHT22;45277;52.768;18.262;2022-08-04T06:50:42;24.70;99.10
59469;DHT22;45277;52.768;18.262;2022-08-04T06:52:17;24.80;99.50
59469;DHT22;45277;52.768;18.262;2022-08-04T06:53:56;25.00;95.20
59469;DHT22;45277;52.768;18.262;2022-08-04T06:55:30;25.00;94.00
59469;DHT22;45277;52.768;18.262;2022-08-04T06:57:04;25.00;95.50
59469;DHT22;45277;52.768;18.262;2022-08-04T06:58:44;25.10;99.30
59469;DHT22;45277;52.768;18.262;2022-08-04T07:00:17;25.20;93.40
59469;DHT22;45277;52.768;18.262;2022-08-04T07:01:51;25.30;97.10
59469;DHT22;45277;52.768;18.262;2022-08-04T07:03:23;25.40;98.10
59469;DHT22;45277;52.768;18.262;2022-08-04T07:04:55;25.60;95.50
59469;DHT22;45277;52.768;18.262;2022-08-04T07:06:31;25.70;93.00
59469;DHT22;45277;52.768;18.262;2022-08-04T07:08:15;25.80;92.30
59469;DHT22;45277;52.768;18.262;2022-08-04T07:09:48;25.90;93.00
59469;DHT22;45277;52.768;18.262;2022-08-04T07:11:20;26.00;92.50
59469;DHT22;45277;52.768;18.262;2022-08-04T07:12:55;26.00;93.70
59469;DHT22;45277;52.768;18.262;2022-08-04T07:14:30;26.20;91.00
59469;DHT22;45277;52.768;18.262;2022-08-04T07:16:03;26.30;86.40
59469;DHT22;45277;52.768;18.262;2022-08-04T07:17:38;26.20;83.10
59469;DHT22;45277;52.768;18.262;2022-08-04T07:19:10;26.30;80.40
59469;DHT22;45277;52.768;18.262;2022-08-04T07:20:43;26.30;80.30
59469;DHT22;45277;52.768;18.262;2022-08-04T07:22:15;26.30;81.90
59469;DHT22;45277;52.768;18.262;2022-08-04T07:23:48;26.30;81.90
59469;DHT22;45277;52.768;18.262;2022-08-04T07:25:21;26.40;90.90
59469;DHT22;45277;52.768;18.262;2022-08-04T07:26:52;26.50;88.90
59469;DHT22;45277;52.768;18.262;2022-08-04T07:28:29;26.50;90.70
59469;DHT22;45277;52.768;18.262;2022-08-04T07:30:04;26.60;90.30
59469;DHT22;45277;52.768;18.262;2022-08-04T07:31:43;26.70;81.90
59469;DHT22;45277;52.768;18.262;2022-08-04T07:33:16;26.80;88.10
59469;DHT22;45277;52.768;18.262;2022-08-04T07:34:52;26.80;92.20
59469;DHT22;45277;52.768;18.262;2022-08-04T07:36:26;26.90;85.50
59469;DHT22;45277;52.768;18.262;2022-08-04T07:37:59;27.10;72.70
59469;DHT22;45277;52.768;18.262;2022-08-04T07:39:31;27.10;69.90
59469;DHT22;45277;52.768;18.262;2022-08-04T07:41:05;27.00;66.60
59469;DHT22;45277;52.768;18.262;2022-08-04T07:42:37;27.00;65.80
59469;DHT22;45277;52.768;18.262;2022-08-04T07:44:09;27.10;79.00
59469;DHT22;45277;52.768;18.262;2022-08-04T07:45:43;27.10;70.10
59469;DHT22;45277;52.768;18.262;2022-08-04T07:47:15;27.30;64.50
59469;DHT22;45277;52.768;18.262;2022-08-04T07:48:47;27.40;75.80
59469;DHT22;45277;52.768;18.262;2022-08-04T07:50:20;27.40;57.00
59469;DHT22;45277;52.768;18.262;2022-08-04T07:51:53;27.50;65.40
59469;DHT22;45277;52.768;18.262;2022-08-04T07:53:28;27.40;61.10
59469;DHT22;45277;52.768;18.262;2022-08-04T07:55:02;27.60;67.70
59469;DHT22;45277;52.768;18.262;2022-08-04T07:56:37;27.70;62.30
59469;DHT22;45277;52.768;18.262;2022-08-04T07:58:11;27.80;58.40
59469;DHT22;45277;52.768;18.262;2022-08-04T07:59:44;27.90;45.90
59469;DHT22;45277;52.768;18.262;2022-08-04T08:01:15;27.90;52.90
59469;DHT22;45277;52.768;18.262;2022-08-04T08:02:51;27.90;53.70
59469;DHT22;45277;52.768;18.262;2022-08-04T08:04:25;28.10;50.40
59469;DHT22;45277;52.768;18.262;2022-08-04T08:06:03;28.10;50.90
59469;DHT22;45277;52.768;18.262;2022-08-04T08:07:35;28.10;47.50
59469;DHT22;45277;52.768;18.262;2022-08-04T08:09:11;28.10;56.70
59469;DHT22;45277;52.768;18.262;2022-08-04T08:10:47;28.20;55.60
59469;DHT22;45277;52.768;18.262;2022-08-04T08:12:19;28.30;48.00
59469;DHT22;45277;52.768;18.262;2022-08-04T08:13:54;28.40;50.30
59469;DHT22;45277;52.768;18.262;2022-08-04T08:15:27;28.50;48.60
59469;DHT22;45277;52.768;18.262;2022-08-04T08:16:59;28.50;41.10
59469;DHT22;45277;52.768;18.262;2022-08-04T08:18:34;28.50;41.70
59469;DHT22;45277;52.768;18.262;2022-08-04T08:20:08;28.60;42.80
59469;DHT22;45277;52.768;18.262;2022-08-04T08:21:40;28.60;36.60
59469;DHT22;45277;52.768;18.262;2022-08-04T08:23:11;28.70;39.10
59469;DHT22;45277;52.768;18.262;2022-08-04T08:24:45;28.80;37.30
59469;DHT22;45277;52.768;18.262;2022-08-04T08:26:17;28.80;34.20
59469;DHT22;45277;52.768;18.262;2022-08-04T08:27:48;28.80;34.70
59469;DHT22;45277;52.768;18.262;2022-08-04T08:29:21;28.80;32.40
59469;DHT22;45277;52.768;18.262;2022-08-04T08:31:00;28.80;31.90
59469;DHT22;45277;52.768;18.262;2022-08-04T08:32:33;28.90;34.80
59469;DHT22;45277;52.768;18.262;2022-08-04T08:34:06;29.00;38.70
59469;DHT22;45277;52.768;18.262;2022-08-04T08:37:40;29.00;30.50
59469;DHT22;45277;52.768;18.262;2022-08-04T08:43:57;29.10;30.80
59469;DHT22;45277;52.768;18.262;2022-08-04T08:52:19;29.50;29.00
59469;DHT22;45277;52.768;18.262;2022-08-04T08:53:51;29.70;27.70
59469;DHT22;45277;52.768;18.262;2022-08-04T08:58:06;29.80;28.70
59469;DHT22;45277;52.768;18.262;2022-08-04T09:00:39;29.80;26.10
59469;DHT22;45277;52.768;18.262;2022-08-04T09:07:43;30.40;25.60
59469;DHT22;45277;52.768;18.262;2022-08-04T09:09:40;30.40;25.20
59469;DHT22;45277;52.768;18.262;2022-08-04T09:11:23;30.40;22.70
59469;DHT22;45277;52.768;18.262;2022-08-04T09:13:20;30.30;24.10
59469;DHT22;45277;52.768;18.262;2022-08-04T09:16:59;30.40;24.10
59469;DHT22;45277;52.768;18.262;2022-08-04T09:18:55;30.40;23.70
59469;DHT22;45277;52.768;18.262;2022-08-04T09:24:44;30.40;21.60
59469;DHT22;45277;52.768;18.262;2022-08-04T09:27:07;30.40;23.00
59469;DHT22;45277;52.768;18.262;2022-08-04T09:28:24;30.40;21.80
59469;DHT22;45277;52.768;18.262;2022-08-04T09:30:00;30.50;23.00
59469;DHT22;45277;52.768;18.262;2022-08-04T09:35:15;30.80;22.40
59469;DHT22;45277;52.768;18.262;2022-08-04T09:37:01;30.90;24.50
59469;DHT22;45277;52.768;18.262;2022-08-04T09:40:37;31.00;23.80
59469;DHT22;45277;52.768;18.262;2022-08-04T09:46:28;31.10;21.80
59469;DHT22;45277;52.768;18.262;2022-08-04T09:48:12;30.90;23.10
59469;DHT22;45277;52.768;18.262;2022-08-04T09:50:01;30.90;24.60
59469;DHT22;45277;52.768;18.262;2022-08-04T09:52:05;30.90;23.30
59469;DHT22;45277;52.768;18.262;2022-08-04T09:54:01;31.10;24.90
59469;DHT22;45277;52.768;18.262;2022-08-04T09:57:18;31.50;22.50
59469;DHT22;45277;52.768;18.262;2022-08-04T10:01:00;31.90;21.70
59469;DHT22;45277;52.768;18.262;2022-08-04T10:02:39;31.90;21.90
59469;DHT22;45277;52.768;18.262;2022-08-04T10:04:13;31.80;23.40
59469;DHT22;45277;52.768;18.262;2022-08-04T10:15:59;32.60;20.50
59469;DHT22;45277;52.768;18.262;2022-08-04T10:18:03;32.90;19.70
59469;DHT22;45277;52.768;18.262;2022-08-04T10:19:41;32.90;20.30
59469;DHT22;45277;52.768;18.262;2022-08-04T10:21:44;32.70;20.20
59469;DHT22;45277;52.768;18.262;2022-08-04T10:23:37;32.80;20.20
59469;DHT22;45277;52.768;18.262;2022-08-04T10:27:23;33.50;18.50
59469;DHT22;45277;52.768;18.262;2022-08-04T10:30:39;33.60;21.10
59469;DHT22;45277;52.768;18.262;2022-08-04T10:32:25;34.00;20.30
59469;DHT22;45277;52.768;18.262;2022-08-04T10:34:18;33.80;18.70
59469;DHT22;45277;52.768;18.262;2022-08-04T10:36:05;34.10;17.10
59469;DHT22;45277;52.768;18.262;2022-08-04T10:42:19;34.00;19.00
59469;DHT22;45277;52.768;18.262;2022-08-04T10:46:36;35.00;18.50
59469;DHT22;45277;52.768;18.262;2022-08-04T10:48:22;35.60;19.00
59469;DHT22;45277;52.768;18.262;2022-08-04T10:50:01;36.00;19.10
59469;DHT22;45277;52.768;18.262;2022-08-04T10:53:38;36.10;18.90
59469;DHT22;45277;52.768;18.262;2022-08-04T10:55:21;35.20;18.20
59469;DHT22;45277;52.768;18.262;2022-08-04T10:57:19;35.50;18.00
59469;DHT22;45277;52.768;18.262;2022-08-04T10:58:59;36.00;17.20
59469;DHT22;45277;52.768;18.262;2022-08-04T11:00:34;36.40;15.40
59469;DHT22;45277;52.768;18.262;2022-08-04T11:04:46;36.30;16.50
59469;DHT22;45277;52.768;18.262;2022-08-04T11:06:19;36.60;16.20
59469;DHT22;45277;52.768;18.262;2022-08-04T11:08:00;36.70;15.90
59469;DHT22;45277;52.768;18.262;2022-08-04T11:09:35;37.30;15.80
59469;DHT22;45277;52.768;18.262;2022-08-04T11:12:48;36.70;16.30
59469;DHT22;45277;52.768;18.262;2022-08-04T11:14:30;36.10;16.90
59469;DHT22;45277;52.768;18.262;2022-08-04T11:16:08;35.80;17.10
59469;DHT22;45277;52.768;18.262;2022-08-04T11:18:09;36.50;16.70
59469;DHT22;45277;52.768;18.262;2022-08-04T11:19:48;37.30;16.70
59469;DHT22;45277;52.768;18.262;2022-08-04T11:21:32;37.90;13.60
59469;DHT22;45277;52.768;18.262;2022-08-04T11:23:13;38.20;15.00
59469;DHT22;45277;52.768;18.262;2022-08-04T11:24:50;38.40;13.10
59469;DHT22;45277;52.768;18.262;2022-08-04T11:26:40;38.40;13.10
59469;DHT22;45277;52.768;18.262;2022-08-04T11:30:31;37.70;11.20
59469;DHT22;45277;52.768;18.262;2022-08-04T11:32:12;37.50;12.70
59469;DHT22;45277;52.768;18.262;2022-08-04T11:35:51;36.20;13.30
59469;DHT22;45277;52.768;18.262;2022-08-04T11:37:31;35.60;15.90
59469;DHT22;45277;52.768;18.262;2022-08-04T11:39:14;35.60;14.70
59469;DHT22;45277;52.768;18.262;2022-08-04T11:40:53;36.30;15.00
59469;DHT22;45277;52.768;18.262;2022-08-04T11:42:38;36.60;15.30
59469;DHT22;45277;52.768;18.262;2022-08-04T11:46:01;36.20;16.00
59469;DHT22;45277;52.768;18.262;2022-08-04T11:47:54;36.60;15.40
59469;DHT22;45277;52.768;18.262;2022-08-04T11:51:02;38.20;16.10
59469;DHT22;45277;52.768;18.262;2022-08-04T11:52:38;38.80;12.90
59469;DHT22;45277;52.768;18.262;2022-08-04T11:54:17;39.20;14.00
59469;DHT22;45277;52.768;18.262;2022-08-04T11:55:53;39.40;13.70
59469;DHT22;45277;52.768;18.262;2022-08-04T11:57:28;39.70;12.20
59469;DHT22;45277;52.768;18.262;2022-08-04T11:59:01;39.70;11.70
59469;DHT22;45277;52.768;18.262;2022-08-04T12:00:39;39.70;13.40
59469;DHT22;45277;52.768;18.262;2022-08-04T12:04:54;38.40;12.60
59469;DHT22;45277;52.768;18.262;2022-08-04T12:08:39;37.60;14.90
59469;DHT22;45277;52.768;18.262;2022-08-04T12:10:21;38.80;13.70
59469;DHT22;45277;52.768;18.262;2022-08-04T12:12:35;38.40;13.60
59469;DHT22;45277;52.768;18.262;2022-08-04T12:14:20;38.10;14.10
59469;DHT22;45277;52.768;18.262;2022-08-04T12:16:16;37.80;12.80
59469;DHT22;45277;52.768;18.262;2022-08-04T12:21:42;38.20;10.70
59469;DHT22;45277;52.768;18.262;2022-08-04T12:23:23;38.50;12.70
59469;DHT22;45277;52.768;18.262;2022-08-04T12:25:09;37.60;12.90
59469;DHT22;45277;52.768;18.262;2022-08-04T12:26:58;36.60;14.00
59469;DHT22;45277;52.768;18.262;2022-08-04T12:28:37;36.40;15.10
59469;DHT22;45277;52.768;18.262;2022-08-04T12:30:12;36.70;15.50
59469;DHT22;45277;52.768;18.262;2022-08-04T12:32:03;37.60;14.50
59469;DHT22;45277;52.768;18.262;2022-08-04T12:33:58;37.90;12.10
59469;DHT22;45277;52.768;18.262;2022-08-04T12:35:52;37.50;13.20
59469;DHT22;45277;52.768;18.262;2022-08-04T12:39:17;37.40;12.80
59469;DHT22;45277;52.768;18.262;2022-08-04T12:40:56;37.60;15.00
59469;DHT22;45277;52.768;18.262;2022-08-04T12:42:35;38.40;15.50
59469;DHT22;45277;52.768;18.262;2022-08-04T12:44:13;38.80;12.80
59469;DHT22;45277;52.768;18.262;2022-08-04T12:45:54;39.50;13.30
59469;DHT22;45277;52.768;18.262;2022-08-04T12:47:28;39.20;12.40
59469;DHT22;45277;52.768;18.262;2022-08-04T12:49:02;38.20;13.50
59469;DHT22;45277;52.768;18.262;2022-08-04T12:50:35;38.30;13.80
59469;DHT22;45277;52.768;18.262;2022-08-04T12:52:10;37.80;14.30
59469;DHT22;45277;52.768;18.262;2022-08-04T12:53:47;38.40;14.20
59469;DHT22;45277;52.768;18.262;2022-08-04T12:55:22;39.30;11.30
59469;DHT22;45277;52.768;18.262;2022-08-04T12:57:00;39.40;12.10
59469;DHT22;45277;52.768;18.262;2022-08-04T12:58:37;40.40;11.40
59469;DHT22;45277;52.768;18.262;2022-08-04T13:00:28;40.70;11.90
59469;DHT22;45277;52.768;18.262;2022-08-04T13:02:04;40.30;10.70
59469;DHT22;45277;52.768;18.262;2022-08-04T13:03:43;40.40;11.50
59469;DHT22;45277;52.768;18.262;2022-08-04T13:05:15;40.20;11.30
59469;DHT22;45277;52.768;18.262;2022-08-04T13:07:06;41.10;11.30
59469;DHT22;45277;52.768;18.262;2022-08-04T13:08:42;41.60;10.40
59469;DHT22;45277;52.768;18.262;2022-08-04T13:10:16;40.80;10.50
59469;DHT22;45277;52.768;18.262;2022-08-04T13:11:53;40.50;11.40
59469;DHT22;45277;52.768;18.262;2022-08-04T13:13:28;40.30;11.90
59469;DHT22;45277;52.768;18.262;2022-08-04T13:15:31;40.90;10.70
59469;DHT22;45277;52.768;18.262;2022-08-04T13:17:03;41.40;9.70
59469;DHT22;45277;52.768;18.262;2022-08-04T13:18:44;41.30;10.30
59469;DHT22;45277;52.768;18.262;2022-08-04T13:20:38;40.60;9.90
59469;DHT22;45277;52.768;18.262;2022-08-04T13:22:09;40.80;10.40
59469;DHT22;45277;52.768;18.262;2022-08-04T13:23:43;41.00;10.60
59469;DHT22;45277;52.768;18.262;2022-08-04T13:25:17;41.20;10.40
59469;DHT22;45277;52.768;18.262;2022-08-04T13:27:03;41.60;9.30
59469;DHT22;45277;52.768;18.262;2022-08-04T13:28:48;40.60;9.40
59469;DHT22;45277;52.768;18.262;2022-08-04T13:30:20;39.90;10.30
59469;DHT22;45277;52.768;18.262;2022-08-04T13:31:55;40.10;10.90
59469;DHT22;45277;52.768;18.262;2022-08-04T13:33:33;40.50;10.80
59469;DHT22;45277;52.768;18.262;2022-08-04T13:35:08;41.00;9.80
59469;DHT22;45277;52.768;18.262;2022-08-04T13:36:41;41.30;10.80
59469;DHT22;45277;52.768;18.262;2022-08-04T13:38:16;41.60;10.20
59469;DHT22;45277;52.768;18.262;2022-08-04T13:39:50;41.30;10.90
59469;DHT22;45277;52.768;18.262;2022-08-04T13:41:24;41.90;9.10
59469;DHT22;45277;52.768;18.262;2022-08-04T13:42:57;41.20;8.90
59469;DHT22;45277;52.768;18.262;2022-08-04T13:44:34;41.10;9.80
59469;DHT22;45277;52.768;18.262;2022-08-04T13:46:08;40.80;9.30